Terminal Aerodrome Forecast
Issued by NWS Buffalo, NY

Home | Current Version | Previous Version | Text Only | Print | Product List | Glossary On
Versions: 1 2 3 4 5 6 7 8 9 10 11 12 13 14 15 16 17 18 19 20 21 22 23 24 25 26 27 28
000
FTUS41 KBUF 262326
TAFROC
TAF
KROC 262326Z 2700/2724 18004KT P6SM SCT060 BKN100 OVC200
     FM270400 21006KT 6SM -SHRA BKN060
     FM271000 23006KT P6SM VCSH OVC040
     FM271500 26006KT P6SM VCSH OVC025
     FM272200 32005KT P6SM BKN045=

USA.gov is the U.S. government's official web portal to all federal, state and local government web resources and services.